createdAt,value
2023-06-27T00:00:01.545Z,14.32
2023-06-27T00:05:01.948Z,14.28
2023-06-27T00:10:02.090Z,14.26
2023-06-27T00:15:02.036Z,14.23
2023-06-27T00:20:02.120Z,14.18
2023-06-27T00:25:01.986Z,14.11
2023-06-27T00:30:01.984Z,14.11
2023-06-27T00:35:01.287Z,14.1
2023-06-27T00:40:01.409Z,14.03
2023-06-27T00:45:02.255Z,14.05
2023-06-27T00:50:02.158Z,13.99
2023-06-27T00:55:01.286Z,13.98
2023-06-27T01:00:01.843Z,13.91
2023-06-27T01:05:01.669Z,13.93
2023-06-27T01:10:02.122Z,13.94
2023-06-27T01:15:02.144Z,13.98
2023-06-27T01:20:02.162Z,13.98
2023-06-27T01:25:01.447Z,13.98
2023-06-27T01:30:02.177Z,13.99
2023-06-27T01:35:02.013Z,14.07
2023-06-27T01:40:02.177Z,14.11
2023-06-27T01:45:02.022Z,14.1
2023-06-27T01:50:02.214Z,14.11
2023-06-27T01:55:01.249Z,14.05
2023-06-27T02:00:02.040Z,13.98
2023-06-27T02:05:01.458Z,13.97
2023-06-27T02:10:01.493Z,13.95
2023-06-27T02:15:01.584Z,14.01
2023-06-27T02:20:02.177Z,14.04
2023-06-27T02:25:01.655Z,14.01
2023-06-27T02:30:02.169Z,13.96
2023-06-27T02:35:01.443Z,13.94
2023-06-27T02:40:01.879Z,13.92
2023-06-27T02:45:01.941Z,13.9
2023-06-27T02:50:01.440Z,13.9
2023-06-27T02:55:01.489Z,13.88
2023-06-27T03:00:01.588Z,13.85
2023-06-27T03:05:02.022Z,13.84
2023-06-27T03:10:01.275Z,13.83
2023-06-27T03:15:01.403Z,13.81
2023-06-27T03:20:01.631Z,13.81
2023-06-27T03:25:01.902Z,13.81
2023-06-27T03:30:01.916Z,13.79
2023-06-27T03:35:02.151Z,13.84
2023-06-27T03:40:01.778Z,13.99
2023-06-27T03:45:01.808Z,14.07
2023-06-27T03:50:01.921Z,14.1
2023-06-27T03:55:01.881Z,14.1
2023-06-27T04:00:01.825Z,13.98
2023-06-27T04:05:02.316Z,13.92
2023-06-27T04:10:02.056Z,13.89
2023-06-27T04:15:02.197Z,13.9
2023-06-27T04:20:02.162Z,13.96
2023-06-27T04:25:02.117Z,14.01
2023-06-27T04:30:02.000Z,14.05
2023-06-27T04:35:01.946Z,14.13
2023-06-27T04:40:01.946Z,14.19
2023-06-27T04:45:01.756Z,14.28
2023-06-27T04:50:01.829Z,14.34
2023-06-27T04:55:02.061Z,14.43
2023-06-27T05:00:02.248Z,14.54
2023-06-27T05:05:02.248Z,14.65
2023-06-27T05:10:01.363Z,14.75
2023-06-27T05:15:01.666Z,14.95
2023-06-27T05:20:01.993Z,15.07
2023-06-27T05:25:01.942Z,15.16
2023-06-27T05:30:01.872Z,15.26
2023-06-27T05:35:01.855Z,15.34
2023-06-27T05:40:02.094Z,15.43
2023-06-27T05:45:02.174Z,15.65
2023-06-27T05:50:01.897Z,15.83
2023-06-27T05:55:01.863Z,16
2023-06-27T06:00:01.859Z,16.28
2023-06-27T06:05:01.824Z,16.41
2023-06-27T06:10:01.885Z,16.75
2023-06-27T06:15:01.902Z,17.47
2023-06-27T06:20:02.140Z,18.35
2023-06-27T06:25:01.311Z,18.69
2023-06-27T06:30:01.519Z,19.91
2023-06-27T06:35:01.443Z,20.58
2023-06-27T06:40:01.441Z,21.17
2023-06-27T06:45:01.714Z,21.24
2023-06-27T06:50:01.854Z,20.81
2023-06-27T06:55:01.728Z,21.27
2023-06-27T07:00:01.751Z,21.52
2023-06-27T07:05:01.797Z,21.85
2023-06-27T07:10:01.983Z,21.95
2023-06-27T07:15:02.057Z,22.35
2023-06-27T07:20:02.228Z,22.34
2023-06-27T07:25:02.182Z,22.26
2023-06-27T07:30:01.963Z,22.68
2023-06-27T07:35:02.051Z,22.8
2023-06-27T07:40:02.093Z,22.91
2023-06-27T07:45:01.831Z,22.81
2023-06-27T07:50:01.719Z,23.22
2023-06-27T07:55:01.643Z,23.13
2023-06-27T08:00:01.576Z,22.97
2023-06-27T08:05:01.299Z,23.08
2023-06-27T08:10:02.049Z,23.52
2023-06-27T08:15:02.047Z,24.1
2023-06-27T08:20:01.954Z,23.8
2023-06-27T08:25:01.843Z,23.56
2023-06-27T08:30:01.904Z,23.34
2023-06-27T08:35:01.860Z,22.25
2023-06-27T08:40:01.968Z,21.7
2023-06-27T08:45:01.798Z,21.45
2023-06-27T08:50:01.919Z,21.94
2023-06-27T08:55:01.946Z,22.39
2023-06-27T09:00:01.906Z,21.69
2023-06-27T09:05:01.893Z,21.35
2023-06-27T09:10:02.052Z,21.73
2023-06-27T09:15:01.991Z,21.82
2023-06-27T09:20:01.974Z,21.38
2023-06-27T09:25:01.785Z,21.23
2023-06-27T09:30:01.977Z,21.7
2023-06-27T09:35:02.016Z,21.61
2023-06-27T09:40:01.923Z,21.9
2023-06-27T09:45:03.984Z,22.29
2023-06-27T09:50:01.472Z,22.67
2023-06-27T09:55:01.701Z,22.12
2023-06-27T10:00:01.799Z,22.42
2023-06-27T10:05:02.212Z,22.4
2023-06-27T10:10:02.268Z,21.78
2023-06-27T10:15:01.315Z,21.58
2023-06-27T10:20:01.529Z,21.46
2023-06-27T10:25:01.496Z,21.02
2023-06-27T10:30:01.707Z,20.91
2023-06-27T10:35:01.490Z,21.21
2023-06-27T10:40:01.522Z,21.89
2023-06-27T10:45:01.579Z,22.37
2023-06-27T10:50:01.814Z,22.16
2023-06-27T10:55:01.937Z,21.78
2023-06-27T11:00:02.121Z,21.75
2023-06-27T11:05:01.472Z,22.09
2023-06-27T11:10:01.544Z,22.9
2023-06-27T11:15:01.706Z,23.64
2023-06-27T11:20:01.953Z,23.15
2023-06-27T11:25:02.037Z,22.72
2023-06-27T11:30:02.129Z,22.39
2023-06-27T11:35:01.401Z,21.96
2023-06-27T11:40:01.616Z,21.62
2023-06-27T11:45:01.722Z,22.34
2023-06-27T11:50:01.861Z,22.55
2023-06-27T11:55:03.397Z,21.93
2023-06-27T12:00:01.703Z,21.36
2023-06-27T12:05:02.004Z,21.2
2023-06-27T12:10:02.022Z,21.53
2023-06-27T12:15:01.345Z,21.91
2023-06-27T12:20:01.821Z,22.28
2023-06-27T12:25:01.901Z,22.49
2023-06-27T12:30:02.061Z,22.46
2023-06-27T12:35:01.882Z,22.65
2023-06-27T12:40:01.310Z,22.84
2023-06-27T12:45:01.435Z,22.71
2023-06-27T12:50:01.865Z,22.76
2023-06-27T12:55:02.166Z,22.64
2023-06-27T13:00:01.554Z,22.85
2023-06-27T13:05:01.925Z,22.87
2023-06-27T13:10:01.528Z,23.18
2023-06-27T13:15:01.741Z,23.26
2023-06-27T13:20:01.300Z,23.07
2023-06-27T13:25:01.640Z,22.97
2023-06-27T13:30:02.241Z,22.87
2023-06-27T13:35:02.197Z,22.99
2023-06-27T13:40:02.192Z,23.03
2023-06-27T13:45:01.262Z,22.97
2023-06-27T13:50:01.574Z,23
2023-06-27T13:55:01.745Z,22.73
2023-06-27T14:00:01.793Z,22.84
2023-06-27T14:05:01.943Z,22.97
2023-06-27T14:10:01.787Z,23.07
2023-06-27T14:15:01.857Z,23.15
2023-06-27T14:20:02.019Z,22.81
2023-06-27T14:25:01.693Z,22.46
2023-06-27T14:30:02.015Z,22.46
2023-06-27T14:35:01.979Z,22.49
2023-06-27T14:40:02.099Z,22.43
2023-06-27T14:45:02.298Z,22.46
2023-06-27T14:50:02.200Z,22.47
2023-06-27T14:55:01.893Z,22.19
2023-06-27T15:00:02.157Z,22.05
2023-06-27T15:05:02.134Z,22.04
2023-06-27T15:10:01.472Z,22.05
2023-06-27T15:15:01.585Z,22.29
2023-06-27T15:20:02.109Z,22.35
2023-06-27T15:25:01.948Z,22.25
2023-06-27T15:30:02.102Z,22.21
2023-06-27T15:35:02.211Z,22.23
2023-06-27T15:40:02.242Z,22.24
2023-06-27T15:45:01.337Z,22.19
2023-06-27T15:50:01.684Z,22.05
2023-06-27T15:55:01.702Z,21.83
2023-06-27T16:00:01.594Z,21.75
2023-06-27T16:05:02.176Z,21.79
2023-06-27T16:10:02.384Z,21.74
2023-06-27T16:15:02.089Z,21.65
2023-06-27T16:20:02.205Z,21.74
2023-06-27T16:25:02.160Z,21.7
2023-06-27T16:30:02.181Z,21.66
2023-06-27T16:35:01.293Z,21.62
2023-06-27T16:40:01.541Z,21.61
2023-06-27T16:45:01.799Z,21.61
2023-06-27T16:50:01.802Z,21.69
2023-06-27T16:55:01.862Z,21.72
2023-06-27T17:00:01.870Z,21.67
2023-06-27T17:05:01.492Z,21.64
2023-06-27T17:10:01.698Z,21.55
2023-06-27T17:15:02.004Z,21.46
2023-06-27T17:20:02.305Z,21.38
2023-06-27T17:25:01.792Z,21.31
2023-06-27T17:30:01.784Z,21.22
2023-06-27T17:35:01.475Z,21.23
2023-06-27T17:40:01.435Z,21.09
2023-06-27T17:45:01.426Z,21.01
2023-06-27T17:50:01.468Z,20.92
2023-06-27T17:55:01.781Z,20.85
2023-06-27T18:00:01.924Z,20.79
2023-06-27T18:05:01.929Z,20.73
2023-06-27T18:10:01.787Z,20.7
2023-06-27T18:15:01.821Z,20.68
2023-06-27T18:20:01.633Z,20.66
2023-06-27T18:25:01.895Z,20.61
2023-06-27T18:30:02.348Z,20.54
2023-06-27T18:35:01.915Z,20.4
2023-06-27T18:40:02.150Z,20.33
2023-06-27T18:45:03.016Z,20.28
2023-06-27T18:50:01.833Z,20.17
2023-06-27T18:55:02.235Z,20.12
2023-06-27T19:00:03.115Z,20.06
2023-06-27T19:05:02.147Z,19.99
2023-06-27T19:10:02.085Z,19.87
2023-06-27T19:15:02.017Z,19.81
2023-06-27T19:20:01.873Z,19.73
2023-06-27T19:25:02.033Z,19.7
2023-06-27T19:30:02.646Z,19.69
2023-06-27T19:35:02.015Z,19.69
2023-06-27T19:40:02.791Z,19.52
2023-06-27T19:45:02.669Z,19.45
2023-06-27T19:50:02.575Z,19.37
2023-06-27T19:55:02.082Z,19.31
2023-06-27T20:00:02.272Z,19.2
2023-06-27T20:05:02.055Z,19.13
2023-06-27T20:10:01.643Z,19.08
2023-06-27T20:15:02.627Z,18.98
2023-06-27T20:20:01.998Z,19.07
2023-06-27T20:25:02.450Z,19.03
2023-06-27T20:30:01.896Z,18.85
2023-06-27T20:35:01.927Z,18.69
2023-06-27T20:40:02.785Z,18.55
2023-06-27T20:45:02.813Z,18.44
2023-06-27T20:50:03.298Z,18.34
2023-06-27T20:55:01.927Z,18.3
2023-06-27T21:00:02.605Z,18.22
2023-06-27T21:05:02.349Z,18.17
2023-06-27T21:10:02.039Z,18.14
2023-06-27T21:15:03.022Z,18.11
2023-06-27T21:20:03.395Z,18.08
2023-06-27T21:25:02.514Z,18.02
2023-06-27T21:30:02.192Z,17.97
2023-06-27T21:35:02.755Z,17.8
2023-06-27T21:40:03.391Z,17.64
2023-06-27T21:45:02.572Z,17.51
2023-06-27T21:50:02.350Z,17.41
2023-06-27T21:55:01.957Z,17.35
2023-06-27T22:00:02.734Z,17.29
2023-06-27T22:05:02.899Z,17.23
2023-06-27T22:10:02.991Z,17.18
2023-06-27T22:15:02.311Z,17.11
2023-06-27T22:20:02.517Z,17.11
2023-06-27T22:25:02.567Z,17.02
2023-06-27T22:30:03.045Z,16.71
2023-06-27T22:35:03.429Z,16.37
2023-06-27T22:40:02.786Z,16.21
2023-06-27T22:45:02.551Z,16.04
2023-06-27T22:50:02.850Z,15.82
2023-06-27T22:55:05.619Z,15.67
2023-06-27T23:00:02.313Z,15.53
2023-06-27T23:05:03.213Z,15.36
2023-06-27T23:10:02.355Z,15.36
2023-06-27T23:15:02.373Z,15.36
2023-06-27T23:40:02.845Z,15.01
2023-06-27T23:45:03.035Z,14.96
2023-06-27T23:50:02.221Z,14.87
2023-06-27T23:55:01.971Z,14.93
